»·PEaware :: WAT590 KLAS-KSBA

WAT590 :: KLAS-KSBA

FLIGHT INFORMATION

Flight Status: Arrived
Operator:
Walker Air Transport
More flights by this operator :: More flights under this callsign
Pilot: Skye D. (10623)
Aircraft: CANADAIR CL-600 CHALLENGER
(CL60)
More flights by this aircraft type
Origin: KLAS Harry Reid Intl
United States
Destination: KSBA Santa Barbara Mun
United States
More flights between these airports :: More routes between these airports
Route: RADYR2 HEC PITBL1
File this flight plan on PilotEdge
Remarks: RMK / SIMBRIEF
Altitude:
(Current/Filed)
30,000ft
Speed:
(Current/Filed)
462kts
Departed: 27-Nov-23 01:46 PM
Arrived: 27-Nov-23 02:36 PM
Distance/Time
Traveled:
250nm/0:50
Distance/Time
To Go:
Arrived

Flight Plot

Page will automatically refresh every two minutes.

Flight plan parsing failed; only flown route is shown


Map Options




Map Legend


Flown Route
Filed Route
Departure Airport
Arrival Airport
Navaid (VOR, NDB)
Fix

Horizontal Profiles

Position Reports

Time Latitude Longitude Heading Altitude Ground
Speed
27-Nov-23 13:12 36.081622 -115.171345 0 2173ft 0kts
27-Nov-23 13:13 36.081622 -115.171345 0 2173ft 0kts
27-Nov-23 13:14 36.081622 -115.171345 0 2173ft 0kts
27-Nov-23 13:15 36.081622 -115.171345 0 2173ft 0kts
27-Nov-23 13:16 36.081622 -115.171345 0 2173ft 0kts
27-Nov-23 13:17 36.081622 -115.171345 0 2173ft 0kts
27-Nov-23 13:18 36.081622 -115.171345 0 2173ft 0kts
27-Nov-23 13:19 36.081622 -115.171345 0 2173ft 0kts
27-Nov-23 13:20 36.081622 -115.171345 0 2173ft 0kts
27-Nov-23 13:21 36.081622 -115.171345 0 2173ft 0kts
27-Nov-23 13:22 36.081622 -115.171345 0 2173ft 0kts
27-Nov-23 13:23 36.081622 -115.171345 0 2173ft 0kts
27-Nov-23 13:24 36.081622 -115.171345 0 2173ft 0kts
27-Nov-23 13:25 36.081622 -115.171345 0 2173ft 0kts
27-Nov-23 13:26 36.081622 -115.171345 0 2173ft 0kts
27-Nov-23 13:27 36.081622 -115.171345 0 2173ft 0kts
27-Nov-23 13:28 36.081622 -115.171345 0 2173ft 0kts
27-Nov-23 13:29 36.081622 -115.171345 0 2173ft 0kts
27-Nov-23 13:30 36.081622 -115.171345 0 2173ft 0kts
27-Nov-23 13:31 36.081622 -115.171345 0 2173ft 0kts
27-Nov-23 13:32 36.081622 -115.171345 0 2173ft 0kts
27-Nov-23 13:33 36.081622 -115.171345 0 2173ft 0kts
27-Nov-23 13:34 36.081622 -115.171345 0 2173ft 0kts
27-Nov-23 13:35 36.081622 -115.171345 0 2173ft 0kts
27-Nov-23 13:36 36.081622 -115.171345 0 2173ft 0kts
27-Nov-23 13:37 36.081537 -115.170417 110 2171ft 0kts
27-Nov-23 13:38 36.081537 -115.170418 111 2171ft 0kts
27-Nov-23 13:39 36.081537 -115.170418 111 2171ft 0kts
27-Nov-23 13:40 36.081467 -115.170032 95 2170ft 5kts
27-Nov-23 13:41 36.079485 -115.170396 204 2175ft 9kts
27-Nov-23 13:42 36.078016 -115.170284 88 2179ft 1kts
27-Nov-23 13:43 36.078024 -115.169793 89 2177ft 7kts
27-Nov-23 13:44 36.078390 -115.168654 26 2174ft 0kts
27-Nov-23 13:45 36.108117 -115.155857 347 3987ft 188kts
27-Nov-23 13:46 36.117131 -115.216466 262 7151ft 214kts
27-Nov-23 13:47 36.099195 -115.292127 215 8716ft 262kts
27-Nov-23 13:48 36.027065 -115.328978 201 13681ft 298kts
27-Nov-23 13:49 35.942244 -115.369804 201 16775ft 371kts
27-Nov-23 13:50 35.834294 -115.382240 180 19424ft 406kts
27-Nov-23 13:51 35.720669 -115.384508 181 20004ft 417kts
27-Nov-23 13:52 35.605276 -115.401586 209 23523ft 424kts
27-Nov-23 13:53 35.521522 -115.505357 229 26590ft 428kts
27-Nov-23 13:54 35.440152 -115.615480 229 28773ft 442kts
27-Nov-23 13:56 35.355031 -115.729940 229 29905ft 459kts
27-Nov-23 13:57 35.268908 -115.843288 229 29946ft 451kts
27-Nov-23 13:58 35.182899 -115.956080 229 29968ft 452kts
27-Nov-23 13:59 35.096841 -116.069655 230 30061ft 453kts
27-Nov-23 14:00 35.010778 -116.182996 230 30110ft 451kts
27-Nov-23 14:01 34.925285 -116.295178 230 30148ft 449kts
27-Nov-23 14:02 34.839115 -116.407840 231 30186ft 448kts
27-Nov-23 14:03 34.787079 -116.539979 261 30211ft 435kts
27-Nov-23 14:04 34.764533 -116.684719 261 30211ft 432kts
27-Nov-23 14:05 34.742746 -116.829415 260 30215ft 431kts
27-Nov-23 14:06 34.720574 -116.975231 262 30233ft 435kts
27-Nov-23 14:07 34.698313 -117.121373 262 30225ft 434kts
27-Nov-23 14:08 34.676335 -117.266223 260 30244ft 432kts
27-Nov-23 14:09 34.654185 -117.408984 260 30268ft 428kts
27-Nov-23 14:10 34.632042 -117.551410 261 30296ft 426kts
27-Nov-23 14:11 34.609689 -117.693302 261 30294ft 426kts
27-Nov-23 14:12 34.587414 -117.835657 261 30322ft 425kts
27-Nov-23 14:13 34.564720 -117.978176 261 30226ft 427kts
27-Nov-23 14:14 34.542060 -118.118803 261 30250ft 426kts
27-Nov-23 14:15 34.519206 -118.260009 261 30262ft 411kts
27-Nov-23 14:16 34.498514 -118.388022 261 28042ft 388kts
27-Nov-23 14:17 34.476957 -118.520109 260 26934ft 416kts
27-Nov-23 14:18 34.454818 -118.654613 259 25237ft 410kts
27-Nov-23 14:19 34.432329 -118.790195 258 24384ft 408kts
27-Nov-23 14:19 34.413174 -118.902330 258 24379ft 411kts
27-Nov-23 14:21 34.386824 -119.055384 258 23237ft 386kts
27-Nov-23 14:22 34.365489 -119.181793 258 20076ft 380kts
27-Nov-23 14:23 34.344621 -119.305485 257 17106ft 369kts
27-Nov-23 14:23 34.327964 -119.403486 257 15151ft 342kts
27-Nov-23 14:24 34.310193 -119.510534 264 13315ft 306kts
27-Nov-23 14:26 34.326117 -119.624328 280 10951ft 287kts
27-Nov-23 14:27 34.341048 -119.719259 279 8636ft 286kts
27-Nov-23 14:27 34.353107 -119.797234 279 6878ft 278kts
27-Nov-23 14:28 34.358552 -119.888102 264 4805ft 264kts
27-Nov-23 14:29 34.354490 -119.973298 265 3195ft 242kts
27-Nov-23 14:30 34.380999 -120.023584 16 2979ft 190kts
27-Nov-23 14:31 34.415973 -119.982435 52 2329ft 195kts
27-Nov-23 14:32 34.427111 -119.925684 94 1221ft 154kts
27-Nov-23 14:33 34.426953 -119.880786 91 479ft 124kts
27-Nov-23 14:34 34.427684 -119.842165 87 21ft 65kts
27-Nov-23 14:35 34.428763 -119.838994 349 21ft 4kts
27-Nov-23 14:36 34.429947 -119.839310 346 21ft 5kts
27-Nov-23 14:37 34.431355 -119.837553 69 21ft 4kts
27-Nov-23 14:38 34.431743 -119.837585 250 21ft 0kts
27-Nov-23 14:39 34.431743 -119.837585 250 21ft 0kts
27-Nov-23 14:40 34.431743 -119.837585 250 21ft 0kts
27-Nov-23 14:41 34.431743 -119.837585 250 21ft 0kts
27-Nov-23 14:42 34.431743 -119.837585 250 21ft 0kts
27-Nov-23 14:43 34.431743 -119.837585 250 21ft 0kts
27-Nov-23 14:44 34.431743 -119.837585 250 21ft 0kts

Navigation Log

Ident Type
Flight plan parsing failed, navigation log unavailable